Weather at Gökçeada Airport

Public forecast

Using degrees Celsius for public forecast. Weather courtesy of forecast.io.

Closest aviation weather report (METAR) to Gökçeada Airport

Closest report is Çanakkale Airport, 25.3 nm (46.8 km) E.

2024/07/22 21:50 (retrieved 42 minutes ago)

LTBH 222150Z 06005KT CAVOK 27/18 Q1008

Closest aviation forecast (TAF) to Gökçeada Airport

Closest forecast is Kavala Alexander the Great International Airport, 71.7 nm (132.7 km) NW.

2024/07/22 18:12 (retrieved 4 hours ago)

TAF LGKV 221700Z 2218/2318 VRB03KT 9999 FEW025 SCT080 PROB40 TEMPO 2302/2309 5000 SHRA FEW020TCU SCT025 BKN080 PROB40 TEMPO 2309/2318 3000 TSRA FEW018CB SCT020 BKN070